sensor_id;sensor_type;location;lat;lon;timestamp;temperature;humidity
12329;DHT22;6230;52.390;10.256;2022-09-21T00:00:46;15.00;62.70
12329;DHT22;6230;52.390;10.256;2022-09-21T00:03:13;15.00;62.70
12329;DHT22;6230;52.390;10.256;2022-09-21T00:05:39;15.00;62.70
12329;DHT22;6230;52.390;10.256;2022-09-21T00:08:06;15.00;62.70
12329;DHT22;6230;52.390;10.256;2022-09-21T00:10:31;15.00;62.70
12329;DHT22;6230;52.390;10.256;2022-09-21T00:12:58;15.00;62.70
12329;DHT22;6230;52.390;10.256;2022-09-21T00:15:25;15.00;62.70
12329;DHT22;6230;52.390;10.256;2022-09-21T00:17:54;15.00;62.70
12329;DHT22;6230;52.390;10.256;2022-09-21T00:20:21;15.00;62.70
12329;DHT22;6230;52.390;10.256;2022-09-21T00:22:47;15.00;62.70
12329;DHT22;6230;52.390;10.256;2022-09-21T00:25:13;14.90;62.60
12329;DHT22;6230;52.390;10.256;2022-09-21T00:27:39;14.90;62.70
12329;DHT22;6230;52.390;10.256;2022-09-21T00:30:06;14.90;62.90
12329;DHT22;6230;52.390;10.256;2022-09-21T00:32:33;14.80;62.80
12329;DHT22;6230;52.390;10.256;2022-09-21T00:35:00;14.80;62.80
12329;DHT22;6230;52.390;10.256;2022-09-21T00:37:26;14.80;62.80
12329;DHT22;6230;52.390;10.256;2022-09-21T00:39:52;14.80;62.90
12329;DHT22;6230;52.390;10.256;2022-09-21T00:44:43;14.80;63.00
12329;DHT22;6230;52.390;10.256;2022-09-21T00:47:12;14.70;63.00
12329;DHT22;6230;52.390;10.256;2022-09-21T00:49:40;14.70;63.90
12329;DHT22;6230;52.390;10.256;2022-09-21T00:52:06;14.70;63.10
12329;DHT22;6230;52.390;10.256;2022-09-21T00:57:14;14.70;63.20
12329;DHT22;6230;52.390;10.256;2022-09-21T00:59:42;14.60;63.00
12329;DHT22;6230;52.390;10.256;2022-09-21T01:02:09;14.60;63.20
12329;DHT22;6230;52.390;10.256;2022-09-21T01:04:37;14.60;63.20
12329;DHT22;6230;52.390;10.256;2022-09-21T01:07:05;14.60;63.30
12329;DHT22;6230;52.390;10.256;2022-09-21T01:09:31;14.50;63.30
12329;DHT22;6230;52.390;10.256;2022-09-21T01:31:01;14.40;63.30
12329;DHT22;6230;52.390;10.256;2022-09-21T01:33:34;14.40;63.40
12329;DHT22;6230;52.390;10.256;2022-09-21T01:36:12;14.30;63.30
12329;DHT22;6230;52.390;10.256;2022-09-21T01:38:44;14.30;63.50
12329;DHT22;6230;52.390;10.256;2022-09-21T01:41:12;14.30;63.50
12329;DHT22;6230;52.390;10.256;2022-09-21T01:43:42;14.20;63.60
12329;DHT22;6230;52.390;10.256;2022-09-21T01:46:17;14.20;63.80
12329;DHT22;6230;52.390;10.256;2022-09-21T01:48:47;14.20;63.90
12329;DHT22;6230;52.390;10.256;2022-09-21T01:51:15;14.20;64.00
12329;DHT22;6230;52.390;10.256;2022-09-21T01:53:49;14.10;63.90
12329;DHT22;6230;52.390;10.256;2022-09-21T01:56:20;14.10;64.00
12329;DHT22;6230;52.390;10.256;2022-09-21T01:59:06;14.10;64.00
12329;DHT22;6230;52.390;10.256;2022-09-21T02:01:37;14.00;64.20
12329;DHT22;6230;52.390;10.256;2022-09-21T02:04:07;14.00;64.10
12329;DHT22;6230;52.390;10.256;2022-09-21T02:06:34;14.00;64.20
12329;DHT22;6230;52.390;10.256;2022-09-21T02:09:02;13.90;64.20
12329;DHT22;6230;52.390;10.256;2022-09-21T02:11:28;13.80;64.10
12329;DHT22;6230;52.390;10.256;2022-09-21T02:13:54;13.80;64.20
12329;DHT22;6230;52.390;10.256;2022-09-21T02:19:11;13.80;64.30
12329;DHT22;6230;52.390;10.256;2022-09-21T02:24:36;13.70;64.30
12329;DHT22;6230;52.390;10.256;2022-09-21T02:30:14;13.80;64.40
12329;DHT22;6230;52.390;10.256;2022-09-21T02:33:10;13.70;64.30
12329;DHT22;6230;52.390;10.256;2022-09-21T02:35:42;13.70;64.50
12329;DHT22;6230;52.390;10.256;2022-09-21T02:38:34;13.70;64.40
12329;DHT22;6230;52.390;10.256;2022-09-21T02:41:25;13.70;64.60
12329;DHT22;6230;52.390;10.256;2022-09-21T02:49:06;13.70;64.70
12329;DHT22;6230;52.390;10.256;2022-09-21T02:51:44;13.70;64.70
12329;DHT22;6230;52.390;10.256;2022-09-21T02:54:14;13.60;64.70
12329;DHT22;6230;52.390;10.256;2022-09-21T02:56:41;13.70;64.70
12329;DHT22;6230;52.390;10.256;2022-09-21T02:59:09;13.60;64.70
12329;DHT22;6230;52.390;10.256;2022-09-21T03:01:35;13.60;64.70
12329;DHT22;6230;52.390;10.256;2022-09-21T03:04:01;13.60;64.80
12329;DHT22;6230;52.390;10.256;2022-09-21T03:06:27;13.70;64.70
12329;DHT22;6230;52.390;10.256;2022-09-21T03:08:52;13.60;64.70
12329;DHT22;6230;52.390;10.256;2022-09-21T03:11:19;13.60;64.70
12329;DHT22;6230;52.390;10.256;2022-09-21T03:13:45;13.60;64.70
12329;DHT22;6230;52.390;10.256;2022-09-21T03:16:11;13.60;64.60
12329;DHT22;6230;52.390;10.256;2022-09-21T03:18:37;13.60;64.60
12329;DHT22;6230;52.390;10.256;2022-09-21T03:21:03;13.60;64.60
12329;DHT22;6230;52.390;10.256;2022-09-21T03:23:29;13.60;64.70
12329;DHT22;6230;52.390;10.256;2022-09-21T03:25:55;13.60;64.70
12329;DHT22;6230;52.390;10.256;2022-09-21T03:28:20;13.60;64.80
12329;DHT22;6230;52.390;10.256;2022-09-21T03:30:50;13.50;64.70
12329;DHT22;6230;52.390;10.256;2022-09-21T03:33:17;13.50;64.80
12329;DHT22;6230;52.390;10.256;2022-09-21T03:35:44;13.50;64.90
12329;DHT22;6230;52.390;10.256;2022-09-21T03:38:10;13.50;64.90
12329;DHT22;6230;52.390;10.256;2022-09-21T03:40:35;13.50;64.90
12329;DHT22;6230;52.390;10.256;2022-09-21T03:43:01;13.40;64.90
12329;DHT22;6230;52.390;10.256;2022-09-21T03:45:27;13.40;64.90
12329;DHT22;6230;52.390;10.256;2022-09-21T03:47:57;13.40;64.90
12329;DHT22;6230;52.390;10.256;2022-09-21T03:50:26;13.40;64.90
12329;DHT22;6230;52.390;10.256;2022-09-21T03:52:53;13.40;64.90
12329;DHT22;6230;52.390;10.256;2022-09-21T03:55:19;13.40;65.00
12329;DHT22;6230;52.390;10.256;2022-09-21T03:57:44;13.40;64.90
12329;DHT22;6230;52.390;10.256;2022-09-21T04:00:10;13.30;64.90
12329;DHT22;6230;52.390;10.256;2022-09-21T04:02:37;13.40;64.80
12329;DHT22;6230;52.390;10.256;2022-09-21T04:05:05;13.30;64.80
12329;DHT22;6230;52.390;10.256;2022-09-21T04:07:31;13.30;64.80
12329;DHT22;6230;52.390;10.256;2022-09-21T04:10:01;13.30;64.90
12329;DHT22;6230;52.390;10.256;2022-09-21T04:12:26;13.30;64.90
12329;DHT22;6230;52.390;10.256;2022-09-21T04:14:52;13.20;65.00
12329;DHT22;6230;52.390;10.256;2022-09-21T04:17:18;13.20;65.10
12329;DHT22;6230;52.390;10.256;2022-09-21T04:19:43;13.20;65.20
12329;DHT22;6230;52.390;10.256;2022-09-21T04:22:13;13.20;65.20
12329;DHT22;6230;52.390;10.256;2022-09-21T04:24:38;13.20;65.20
12329;DHT22;6230;52.390;10.256;2022-09-21T04:27:06;13.20;65.20
12329;DHT22;6230;52.390;10.256;2022-09-21T04:29:31;13.20;65.10
12329;DHT22;6230;52.390;10.256;2022-09-21T04:31:57;13.20;65.20
12329;DHT22;6230;52.390;10.256;2022-09-21T04:34:22;13.20;65.10
12329;DHT22;6230;52.390;10.256;2022-09-21T04:36:48;13.20;65.00
12329;DHT22;6230;52.390;10.256;2022-09-21T04:39:13;13.20;65.00
12329;DHT22;6230;52.390;10.256;2022-09-21T04:41:39;13.20;65.10
12329;DHT22;6230;52.390;10.256;2022-09-21T04:44:06;13.20;65.20
12329;DHT22;6230;52.390;10.256;2022-09-21T04:46:32;13.20;65.20
12329;DHT22;6230;52.390;10.256;2022-09-21T04:48:57;13.20;65.20
12329;DHT22;6230;52.390;10.256;2022-09-21T04:51:23;13.20;65.20
12329;DHT22;6230;52.390;10.256;2022-09-21T04:53:49;13.20;65.10
12329;DHT22;6230;52.390;10.256;2022-09-21T04:56:15;13.20;65.20
12329;DHT22;6230;52.390;10.256;2022-09-21T04:58:41;13.20;65.20
12329;DHT22;6230;52.390;10.256;2022-09-21T05:01:07;13.20;65.20
12329;DHT22;6230;52.390;10.256;2022-09-21T05:03:33;13.20;65.30
12329;DHT22;6230;52.390;10.256;2022-09-21T05:05:59;13.20;65.30
12329;DHT22;6230;52.390;10.256;2022-09-21T05:08:25;13.10;65.40
12329;DHT22;6230;52.390;10.256;2022-09-21T05:11:12;13.10;65.40
12329;DHT22;6230;52.390;10.256;2022-09-21T05:13:38;13.10;66.30
12329;DHT22;6230;52.390;10.256;2022-09-21T05:16:04;13.10;65.60
12329;DHT22;6230;52.390;10.256;2022-09-21T05:18:30;13.10;65.60
12329;DHT22;6230;52.390;10.256;2022-09-21T05:20:57;13.00;65.60
12329;DHT22;6230;52.390;10.256;2022-09-21T05:23:24;13.10;65.80
12329;DHT22;6230;52.390;10.256;2022-09-21T05:25:50;13.00;65.80
12329;DHT22;6230;52.390;10.256;2022-09-21T05:28:16;13.00;65.80
12329;DHT22;6230;52.390;10.256;2022-09-21T05:30:51;13.00;65.80
12329;DHT22;6230;52.390;10.256;2022-09-21T05:33:19;13.00;66.00
12329;DHT22;6230;52.390;10.256;2022-09-21T05:38:27;12.90;66.20
12329;DHT22;6230;52.390;10.256;2022-09-21T05:40:53;12.90;66.10
12329;DHT22;6230;52.390;10.256;2022-09-21T05:43:18;12.90;66.10
12329;DHT22;6230;52.390;10.256;2022-09-21T05:45:58;12.90;66.10
12329;DHT22;6230;52.390;10.256;2022-09-21T05:48:35;12.90;66.20
12329;DHT22;6230;52.390;10.256;2022-09-21T05:51:03;12.90;66.20
12329;DHT22;6230;52.390;10.256;2022-09-21T05:53:39;12.90;66.20
12329;DHT22;6230;52.390;10.256;2022-09-21T05:59:23;13.00;66.30
12329;DHT22;6230;52.390;10.256;2022-09-21T06:04:30;13.00;66.40
12329;DHT22;6230;52.390;10.256;2022-09-21T06:06:55;13.00;66.30
12329;DHT22;6230;52.390;10.256;2022-09-21T06:09:21;13.00;66.50
12329;DHT22;6230;52.390;10.256;2022-09-21T06:11:46;13.00;66.50
12329;DHT22;6230;52.390;10.256;2022-09-21T06:14:12;13.00;66.50
12329;DHT22;6230;52.390;10.256;2022-09-21T06:16:39;13.10;66.70
12329;DHT22;6230;52.390;10.256;2022-09-21T06:19:05;13.10;66.80
12329;DHT22;6230;52.390;10.256;2022-09-21T06:21:30;13.10;66.70
12329;DHT22;6230;52.390;10.256;2022-09-21T06:23:56;13.10;66.80
12329;DHT22;6230;52.390;10.256;2022-09-21T06:26:21;13.20;66.90
12329;DHT22;6230;52.390;10.256;2022-09-21T06:28:47;13.20;67.00
12329;DHT22;6230;52.390;10.256;2022-09-21T06:31:12;13.20;67.00
12329;DHT22;6230;52.390;10.256;2022-09-21T06:33:38;13.20;67.10
12329;DHT22;6230;52.390;10.256;2022-09-21T06:36:04;13.20;67.20
12329;DHT22;6230;52.390;10.256;2022-09-21T06:38:29;13.30;67.30
12329;DHT22;6230;52.390;10.256;2022-09-21T06:41:00;13.30;67.30
12329;DHT22;6230;52.390;10.256;2022-09-21T06:43:26;13.30;67.40
12329;DHT22;6230;52.390;10.256;2022-09-21T06:45:53;13.30;67.40
12329;DHT22;6230;52.390;10.256;2022-09-21T06:48:19;13.30;67.50
12329;DHT22;6230;52.390;10.256;2022-09-21T06:50:44;13.20;67.60
12329;DHT22;6230;52.390;10.256;2022-09-21T06:53:10;13.20;67.70
12329;DHT22;6230;52.390;10.256;2022-09-21T06:55:35;13.20;67.90
12329;DHT22;6230;52.390;10.256;2022-09-21T06:58:02;13.20;68.00
12329;DHT22;6230;52.390;10.256;2022-09-21T07:00:28;13.20;68.20
12329;DHT22;6230;52.390;10.256;2022-09-21T07:02:54;13.30;68.30
12329;DHT22;6230;52.390;10.256;2022-09-21T07:05:20;13.30;68.40
12329;DHT22;6230;52.390;10.256;2022-09-21T07:07:45;13.30;68.50
12329;DHT22;6230;52.390;10.256;2022-09-21T07:10:11;13.30;68.50
12329;DHT22;6230;52.390;10.256;2022-09-21T07:12:36;13.40;68.60
12329;DHT22;6230;52.390;10.256;2022-09-21T07:15:03;13.40;68.70
12329;DHT22;6230;52.390;10.256;2022-09-21T07:17:34;13.50;68.80
12329;DHT22;6230;52.390;10.256;2022-09-21T07:20:00;13.50;68.80
12329;DHT22;6230;52.390;10.256;2022-09-21T07:22:28;13.50;68.90
12329;DHT22;6230;52.390;10.256;2022-09-21T07:24:54;13.50;69.10
12329;DHT22;6230;52.390;10.256;2022-09-21T07:27:19;13.60;69.10
12329;DHT22;6230;52.390;10.256;2022-09-21T07:29:45;13.70;69.30
12329;DHT22;6230;52.390;10.256;2022-09-21T07:32:12;13.70;69.20
12329;DHT22;6230;52.390;10.256;2022-09-21T07:34:37;13.70;69.20
12329;DHT22;6230;52.390;10.256;2022-09-21T07:37:03;13.70;69.30
12329;DHT22;6230;52.390;10.256;2022-09-21T07:39:29;13.80;69.40
12329;DHT22;6230;52.390;10.256;2022-09-21T07:41:55;13.80;69.50
12329;DHT22;6230;52.390;10.256;2022-09-21T07:44:21;13.90;69.50
12329;DHT22;6230;52.390;10.256;2022-09-21T07:46:50;13.90;69.50
12329;DHT22;6230;52.390;10.256;2022-09-21T07:49:16;14.00;69.50
12329;DHT22;6230;52.390;10.256;2022-09-21T07:51:42;14.00;69.50
12329;DHT22;6230;52.390;10.256;2022-09-21T07:54:08;14.10;69.60
12329;DHT22;6230;52.390;10.256;2022-09-21T07:56:36;14.20;69.70
12329;DHT22;6230;52.390;10.256;2022-09-21T07:59:02;14.20;69.70
12329;DHT22;6230;52.390;10.256;2022-09-21T08:01:38;14.20;69.60
12329;DHT22;6230;52.390;10.256;2022-09-21T08:04:09;14.30;69.60
12329;DHT22;6230;52.390;10.256;2022-09-21T08:06:36;14.30;69.70
12329;DHT22;6230;52.390;10.256;2022-09-21T08:09:05;14.40;69.70
12329;DHT22;6230;52.390;10.256;2022-09-21T08:11:31;14.40;69.70
12329;DHT22;6230;52.390;10.256;2022-09-21T08:13:59;14.50;69.80
12329;DHT22;6230;52.390;10.256;2022-09-21T08:16:25;14.60;69.80
12329;DHT22;6230;52.390;10.256;2022-09-21T08:18:51;14.70;69.60
12329;DHT22;6230;52.390;10.256;2022-09-21T08:21:17;14.70;69.60
12329;DHT22;6230;52.390;10.256;2022-09-21T08:23:43;14.80;69.60
12329;DHT22;6230;52.390;10.256;2022-09-21T08:26:13;14.90;69.60
12329;DHT22;6230;52.390;10.256;2022-09-21T08:28:47;14.90;69.60
12329;DHT22;6230;52.390;10.256;2022-09-21T08:31:17;15.00;69.40
12329;DHT22;6230;52.390;10.256;2022-09-21T08:33:44;15.10;69.40
12329;DHT22;6230;52.390;10.256;2022-09-21T08:36:10;15.20;69.50
12329;DHT22;6230;52.390;10.256;2022-09-21T08:38:37;15.20;69.30
12329;DHT22;6230;52.390;10.256;2022-09-21T08:41:14;15.30;69.30
12329;DHT22;6230;52.390;10.256;2022-09-21T08:43:48;15.40;69.30
12329;DHT22;6230;52.390;10.256;2022-09-21T08:46:19;15.50;69.20
12329;DHT22;6230;52.390;10.256;2022-09-21T08:51:25;15.60;68.90
12329;DHT22;6230;52.390;10.256;2022-09-21T08:53:56;15.70;68.80
12329;DHT22;6230;52.390;10.256;2022-09-21T08:56:25;15.80;68.70
12329;DHT22;6230;52.390;10.256;2022-09-21T08:58:52;15.80;68.60
12329;DHT22;6230;52.390;10.256;2022-09-21T09:10:05;16.20;68.50
12329;DHT22;6230;52.390;10.256;2022-09-21T09:12:47;16.30;68.50
12329;DHT22;6230;52.390;10.256;2022-09-21T09:15:28;16.50;68.30
12329;DHT22;6230;52.390;10.256;2022-09-21T09:18:21;16.70;68.00
12329;DHT22;6230;52.390;10.256;2022-09-21T09:20:57;16.90;67.80
12329;DHT22;6230;52.390;10.256;2022-09-21T09:23:34;17.10;67.60
12329;DHT22;6230;52.390;10.256;2022-09-21T09:26:07;17.20;67.30
12329;DHT22;6230;52.390;10.256;2022-09-21T09:28:44;17.40;67.10
12329;DHT22;6230;52.390;10.256;2022-09-21T09:36:14;17.90;66.70
12329;DHT22;6230;52.390;10.256;2022-09-21T09:38:45;18.10;66.40
12329;DHT22;6230;52.390;10.256;2022-09-21T09:44:08;18.50;65.70
12329;DHT22;6230;52.390;10.256;2022-09-21T09:52:14;18.90;64.70
12329;DHT22;6230;52.390;10.256;2022-09-21T09:54:41;19.00;64.40
12329;DHT22;6230;52.390;10.256;2022-09-21T09:57:08;19.00;64.10
12329;DHT22;6230;52.390;10.256;2022-09-21T09:59:42;19.10;63.90
12329;DHT22;6230;52.390;10.256;2022-09-21T10:02:26;19.20;64.60
12329;DHT22;6230;52.390;10.256;2022-09-21T10:04:56;19.30;63.40
12329;DHT22;6230;52.390;10.256;2022-09-21T10:07:43;19.50;63.30
12329;DHT22;6230;52.390;10.256;2022-09-21T10:10:32;19.70;62.70
12329;DHT22;6230;52.390;10.256;2022-09-21T10:13:12;19.70;61.80
12329;DHT22;6230;52.390;10.256;2022-09-21T10:15:49;19.70;62.00
12329;DHT22;6230;52.390;10.256;2022-09-21T10:18:39;19.80;62.00
12329;DHT22;6230;52.390;10.256;2022-09-21T10:21:08;19.90;62.00
12329;DHT22;6230;52.390;10.256;2022-09-21T10:23:45;20.20;61.60
12329;DHT22;6230;52.390;10.256;2022-09-21T10:26:12;20.20;61.00
12329;DHT22;6230;52.390;10.256;2022-09-21T10:34:28;20.30;60.00
12329;DHT22;6230;52.390;10.256;2022-09-21T10:36:57;20.20;60.00
12329;DHT22;6230;52.390;10.256;2022-09-21T10:39:33;20.20;59.80
12329;DHT22;6230;52.390;10.256;2022-09-21T10:42:11;20.10;59.30
12329;DHT22;6230;52.390;10.256;2022-09-21T10:44:45;20.00;59.50
12329;DHT22;6230;52.390;10.256;2022-09-21T10:49:51;19.90;59.30
12329;DHT22;6230;52.390;10.256;2022-09-21T10:52:21;19.80;59.40
12329;DHT22;6230;52.390;10.256;2022-09-21T10:54:49;19.70;59.20
12329;DHT22;6230;52.390;10.256;2022-09-21T10:57:19;19.60;59.10
12329;DHT22;6230;52.390;10.256;2022-09-21T10:59:45;19.50;59.20
12329;DHT22;6230;52.390;10.256;2022-09-21T11:02:24;19.40;59.20
12329;DHT22;6230;52.390;10.256;2022-09-21T11:04:56;19.30;59.10
12329;DHT22;6230;52.390;10.256;2022-09-21T11:10:17;19.20;59.40
12329;DHT22;6230;52.390;10.256;2022-09-21T11:15:40;19.50;59.30
12329;DHT22;6230;52.390;10.256;2022-09-21T11:18:32;19.80;58.80
12329;DHT22;6230;52.390;10.256;2022-09-21T11:21:25;19.80;58.30
12329;DHT22;6230;52.390;10.256;2022-09-21T11:29:25;19.70;58.30
12329;DHT22;6230;52.390;10.256;2022-09-21T11:32:06;19.50;58.30
12329;DHT22;6230;52.390;10.256;2022-09-21T11:43:51;19.20;58.40
12329;DHT22;6230;52.390;10.256;2022-09-21T11:46:43;19.20;58.70
12329;DHT22;6230;52.390;10.256;2022-09-21T11:52:30;19.20;58.30
12329;DHT22;6230;52.390;10.256;2022-09-21T11:58:09;19.30;58.20
12329;DHT22;6230;52.390;10.256;2022-09-21T12:03:49;19.30;57.80
12329;DHT22;6230;52.390;10.256;2022-09-21T12:22:29;21.00;53.70
12329;DHT22;6230;52.390;10.256;2022-09-21T12:25:03;21.10;53.60
12329;DHT22;6230;52.390;10.256;2022-09-21T12:27:40;21.20;52.60
12329;DHT22;6230;52.390;10.256;2022-09-21T12:30:22;21.10;51.90
12329;DHT22;6230;52.390;10.256;2022-09-21T12:38:11;20.80;51.80
12329;DHT22;6230;52.390;10.256;2022-09-21T12:46:09;20.50;52.50
12329;DHT22;6230;52.390;10.256;2022-09-21T12:48:38;20.70;52.20
12329;DHT22;6230;52.390;10.256;2022-09-21T12:51:24;20.90;52.60
12329;DHT22;6230;52.390;10.256;2022-09-21T12:53:54;21.30;51.70
12329;DHT22;6230;52.390;10.256;2022-09-21T12:56:42;21.70;51.70
12329;DHT22;6230;52.390;10.256;2022-09-21T12:59:35;22.20;50.60
12329;DHT22;6230;52.390;10.256;2022-09-21T13:02:27;22.50;50.00
12329;DHT22;6230;52.390;10.256;2022-09-21T13:05:20;22.80;49.90
12329;DHT22;6230;52.390;10.256;2022-09-21T13:08:11;23.20;49.40
12329;DHT22;6230;52.390;10.256;2022-09-21T13:15:54;23.60;48.50
12329;DHT22;6230;52.390;10.256;2022-09-21T13:18:37;23.70;48.20
12329;DHT22;6230;52.390;10.256;2022-09-21T13:23:41;24.10;47.20
12329;DHT22;6230;52.390;10.256;2022-09-21T13:26:09;24.20;47.60
12329;DHT22;6230;52.390;10.256;2022-09-21T13:28:59;24.40;47.30
12329;DHT22;6230;52.390;10.256;2022-09-21T13:36:43;25.00;45.30
12329;DHT22;6230;52.390;10.256;2022-09-21T13:39:18;24.90;45.90
12329;DHT22;6230;52.390;10.256;2022-09-21T13:41:44;24.70;45.90
12329;DHT22;6230;52.390;10.256;2022-09-21T13:44:37;24.40;45.90
12329;DHT22;6230;52.390;10.256;2022-09-21T13:47:03;24.20;45.40
12329;DHT22;6230;52.390;10.256;2022-09-21T13:49:33;24.10;45.90
12329;DHT22;6230;52.390;10.256;2022-09-21T13:52:20;24.30;45.40
12329;DHT22;6230;52.390;10.256;2022-09-21T13:55:02;24.50;44.70
12329;DHT22;6230;52.390;10.256;2022-09-21T13:57:43;24.50;44.00
12329;DHT22;6230;52.390;10.256;2022-09-21T14:02:56;24.10;44.00
12329;DHT22;6230;52.390;10.256;2022-09-21T14:05:29;23.90;42.90
12329;DHT22;6230;52.390;10.256;2022-09-21T14:07:59;23.90;43.20
12329;DHT22;6230;52.390;10.256;2022-09-21T14:10:26;23.90;43.20
12329;DHT22;6230;52.390;10.256;2022-09-21T14:12:53;23.90;43.30
12329;DHT22;6230;52.390;10.256;2022-09-21T14:20:40;24.00;42.60
12329;DHT22;6230;52.390;10.256;2022-09-21T14:23:27;23.90;43.50
12329;DHT22;6230;52.390;10.256;2022-09-21T14:25:57;23.80;43.60
12329;DHT22;6230;52.390;10.256;2022-09-21T14:28:42;23.70;43.50
12329;DHT22;6230;52.390;10.256;2022-09-21T14:31:23;23.50;43.40
12329;DHT22;6230;52.390;10.256;2022-09-21T14:33:54;23.30;43.90
12329;DHT22;6230;52.390;10.256;2022-09-21T14:36:31;23.10;44.30
12329;DHT22;6230;52.390;10.256;2022-09-21T14:39:04;23.00;44.50
12329;DHT22;6230;52.390;10.256;2022-09-21T14:41:37;22.80;44.80
12329;DHT22;6230;52.390;10.256;2022-09-21T14:44:04;22.70;44.90
12329;DHT22;6230;52.390;10.256;2022-09-21T14:46:52;22.50;45.10
12329;DHT22;6230;52.390;10.256;2022-09-21T14:55:15;22.10;45.40
12329;DHT22;6230;52.390;10.256;2022-09-21T14:57:58;22.00;45.60
12329;DHT22;6230;52.390;10.256;2022-09-21T15:00:43;21.90;46.10
12329;DHT22;6230;52.390;10.256;2022-09-21T15:12:17;21.70;46.50
12329;DHT22;6230;52.390;10.256;2022-09-21T15:14:46;21.60;46.50
12329;DHT22;6230;52.390;10.256;2022-09-21T15:17:33;21.60;46.40
12329;DHT22;6230;52.390;10.256;2022-09-21T15:20:00;21.60;46.00
12329;DHT22;6230;52.390;10.256;2022-09-21T15:22:42;21.50;46.20
12329;DHT22;6230;52.390;10.256;2022-09-21T15:25:11;21.40;46.30
12329;DHT22;6230;52.390;10.256;2022-09-21T15:27:37;21.40;46.40
12329;DHT22;6230;52.390;10.256;2022-09-21T15:30:22;21.40;46.40
12329;DHT22;6230;52.390;10.256;2022-09-21T15:32:55;21.40;46.30
12329;DHT22;6230;52.390;10.256;2022-09-21T15:35:23;21.30;46.30
12329;DHT22;6230;52.390;10.256;2022-09-21T15:37:50;21.20;46.40
12329;DHT22;6230;52.390;10.256;2022-09-21T15:40:28;21.20;46.30
12329;DHT22;6230;52.390;10.256;2022-09-21T15:46:04;21.10;46.70
12329;DHT22;6230;52.390;10.256;2022-09-21T15:48:37;21.10;46.70
12329;DHT22;6230;52.390;10.256;2022-09-21T15:51:17;21.10;47.00
12329;DHT22;6230;52.390;10.256;2022-09-21T15:53:49;21.00;47.00
12329;DHT22;6230;52.390;10.256;2022-09-21T15:56:26;21.00;47.10
12329;DHT22;6230;52.390;10.256;2022-09-21T15:59:02;21.00;46.90
12329;DHT22;6230;52.390;10.256;2022-09-21T16:01:43;20.90;46.90
12329;DHT22;6230;52.390;10.256;2022-09-21T16:04:16;20.80;47.10
12329;DHT22;6230;52.390;10.256;2022-09-21T16:06:46;20.80;47.20
12329;DHT22;6230;52.390;10.256;2022-09-21T16:09:38;20.80;47.40
12329;DHT22;6230;52.390;10.256;2022-09-21T16:15:05;20.70;47.10
12329;DHT22;6230;52.390;10.256;2022-09-21T16:17:36;20.60;47.10
12329;DHT22;6230;52.390;10.256;2022-09-21T16:22:46;20.60;47.40
12329;DHT22;6230;52.390;10.256;2022-09-21T16:27:54;20.40;47.60
12329;DHT22;6230;52.390;10.256;2022-09-21T16:30:46;20.40;47.70
12329;DHT22;6230;52.390;10.256;2022-09-21T16:33:41;20.40;47.60
12329;DHT22;6230;52.390;10.256;2022-09-21T16:36:37;20.30;47.50
12329;DHT22;6230;52.390;10.256;2022-09-21T16:39:08;20.30;47.90
12329;DHT22;6230;52.390;10.256;2022-09-21T16:41:38;20.30;48.00
12329;DHT22;6230;52.390;10.256;2022-09-21T16:44:18;20.20;48.00
12329;DHT22;6230;52.390;10.256;2022-09-21T16:46:53;20.20;48.20
12329;DHT22;6230;52.390;10.256;2022-09-21T16:49:19;20.20;48.30
12329;DHT22;6230;52.390;10.256;2022-09-21T16:51:47;20.10;48.50
12329;DHT22;6230;52.390;10.256;2022-09-21T16:54:14;20.10;48.70
12329;DHT22;6230;52.390;10.256;2022-09-21T16:56:40;20.10;48.90
12329;DHT22;6230;52.390;10.256;2022-09-21T16:59:14;20.00;49.10
12329;DHT22;6230;52.390;10.256;2022-09-21T17:01:41;20.00;49.60
12329;DHT22;6230;52.390;10.256;2022-09-21T17:04:08;20.00;49.80
12329;DHT22;6230;52.390;10.256;2022-09-21T17:06:34;19.90;49.90
12329;DHT22;6230;52.390;10.256;2022-09-21T17:09:10;19.90;50.00
12329;DHT22;6230;52.390;10.256;2022-09-21T17:11:40;19.80;50.30
12329;DHT22;6230;52.390;10.256;2022-09-21T17:14:09;19.80;50.50
12329;DHT22;6230;52.390;10.256;2022-09-21T17:16:36;19.70;50.70
12329;DHT22;6230;52.390;10.256;2022-09-21T17:19:02;19.70;51.00
12329;DHT22;6230;52.390;10.256;2022-09-21T17:21:27;19.60;51.10
12329;DHT22;6230;52.390;10.256;2022-09-21T17:23:53;19.60;51.40
12329;DHT22;6230;52.390;10.256;2022-09-21T17:26:18;19.50;51.50
12329;DHT22;6230;52.390;10.256;2022-09-21T17:28:45;19.50;51.70
12329;DHT22;6230;52.390;10.256;2022-09-21T17:31:12;19.40;52.00
12329;DHT22;6230;52.390;10.256;2022-09-21T17:33:41;19.30;52.10
12329;DHT22;6230;52.390;10.256;2022-09-21T17:36:14;19.30;52.30
12329;DHT22;6230;52.390;10.256;2022-09-21T17:38:41;19.20;52.50
12329;DHT22;6230;52.390;10.256;2022-09-21T17:44:06;19.10;52.80
12329;DHT22;6230;52.390;10.256;2022-09-21T17:46:58;19.00;53.00
12329;DHT22;6230;52.390;10.256;2022-09-21T17:49:27;19.00;53.30
12329;DHT22;6230;52.390;10.256;2022-09-21T17:51:54;18.90;53.20
12329;DHT22;6230;52.390;10.256;2022-09-21T17:54:38;18.90;53.40
12329;DHT22;6230;52.390;10.256;2022-09-21T17:57:36;18.80;53.40
12329;DHT22;6230;52.390;10.256;2022-09-21T18:00:32;18.70;53.90
12329;DHT22;6230;52.390;10.256;2022-09-21T18:03:00;18.70;53.90
12329;DHT22;6230;52.390;10.256;2022-09-21T18:05:27;18.70;53.80
12329;DHT22;6230;52.390;10.256;2022-09-21T18:07:54;18.60;53.80
12329;DHT22;6230;52.390;10.256;2022-09-21T18:10:21;18.50;53.90
12329;DHT22;6230;52.390;10.256;2022-09-21T18:13:08;18.40;54.10
12329;DHT22;6230;52.390;10.256;2022-09-21T18:18:42;18.40;54.40
12329;DHT22;6230;52.390;10.256;2022-09-21T18:21:17;18.30;54.30
12329;DHT22;6230;52.390;10.256;2022-09-21T18:26:15;18.20;54.50
12329;DHT22;6230;52.390;10.256;2022-09-21T18:28:43;18.20;54.50
12329;DHT22;6230;52.390;10.256;2022-09-21T18:34:35;18.10;54.80
12329;DHT22;6230;52.390;10.256;2022-09-21T18:42:39;17.90;55.00
12329;DHT22;6230;52.390;10.256;2022-09-21T18:45:23;17.90;55.20
12329;DHT22;6230;52.390;10.256;2022-09-21T18:56:02;17.70;55.40
12329;DHT22;6230;52.390;10.256;2022-09-21T18:58:29;17.70;55.40
12329;DHT22;6230;52.390;10.256;2022-09-21T19:00:55;17.70;55.60
12329;DHT22;6230;52.390;10.256;2022-09-21T19:03:21;17.70;55.80
12329;DHT22;6230;52.390;10.256;2022-09-21T19:08:54;17.60;56.10
12329;DHT22;6230;52.390;10.256;2022-09-21T19:11:33;17.60;55.90
12329;DHT22;6230;52.390;10.256;2022-09-21T19:14:25;17.60;56.00
12329;DHT22;6230;52.390;10.256;2022-09-21T19:23:05;17.50;56.00
12329;DHT22;6230;52.390;10.256;2022-09-21T19:25:42;17.40;56.00
12329;DHT22;6230;52.390;10.256;2022-09-21T19:31:03;17.30;56.10
12329;DHT22;6230;52.390;10.256;2022-09-21T19:33:32;17.30;56.10
12329;DHT22;6230;52.390;10.256;2022-09-21T19:35:58;17.30;56.10